Neptune Hellas — 9HA3957 — position and weather

sailwx.info

Track history (hours):
 
Tides and Currents Weather Stations Pressure Air Temp Water Temp Dewpoint Dewpoint Depression Visibility Wind Speed Wind Dir Waves Ship Positions

Neptune Hellas

Last reported at 2017-Sep-20 21:55 UTC. Time now 2017-Sep-23 23:56 UTC.
Position N 35°12' E 029°33'.

Length 168 m; draft 7.6 m.

Type: Cargo ship. MMSI: 256575000.

Date/timePositionNaut miles runAvg speedWind from/ knotsBaromVisibWave heightAir tempDewpointWater temp
2017-Sep-20 21:55N 35°12' E 029°33'1116.7
2017-Sep-20 21:16N 35°10' E 029°46'516.7
2017-Sep-20 20:56N 35°08' E 029°52'716.9
2017-Sep-20 20:30N 35°06' E 030°01'816.9
2017-Sep-20 20:00N 35°03' E 030°11'817.0
2017-Sep-20 19:30N 34°60' E 030°20'816.7
2017-Sep-20 19:00N 34°57' E 030°30'916.7
2017-Sep-20 18:27N 34°51' E 030°39'1016.0
2017-Sep-20 17:51N 34°43' E 030°45'616.5
2017-Sep-20 17:30N 34°37' E 030°46'3116.3
2017-Sep-20 15:35N 34°07' E 030°53'216.0
2017-Sep-20 15:29N 34°05' E 030°54'231 4.5
2017-Sep-18 12:21N 31°51' E 034°38'39 4.5
2017-Sep-18 03:38N 31°54' E 033°52'316.2
2017-Sep-18 03:26N 31°54' E 033°49'716.3
2017-Sep-18 02:58N 31°54' E 033°40'916.0
2017-Sep-18 02:26N 31°55' E 033°30'716.3
2017-Sep-18 02:00N 31°55' E 033°21'1116.2
2017-Sep-18 01:18N 31°55' E 033°08'2016.3
2017-Sep-18 00:03N 31°56' E 032°44'2616.5
2017-Sep-17 22:28N 31°58' E 032°13'166 4.6
2017-Sep-16 10:05N 34°38' E 033°04'1 8.0
2017-Sep-16 09:57N 34°39' E 033°03'2 3.8
2017-Sep-16 09:30N 34°39' E 033°01'0 0.0
2017-Sep-16 09:00N 34°39' E 033°01'0 0.0
2017-Sep-16 08:30N 34°39' E 033°01'0 0.0
2017-Sep-16 07:54N 34°39' E 033°01'0 0.0
2017-Sep-16 07:30N 34°39' E 033°01'0 0.0
2017-Sep-16 07:00N 34°39' E 033°01'0 0.0
2017-Sep-16 06:24N 34°39' E 033°01'0 0.0
2017-Sep-16 06:00N 34°39' E 033°01'0 0.0
2017-Sep-16 05:24N 34°39' E 033°01'0 0.0
2017-Sep-16 05:00N 34°39' E 033°01'1 1.5
2017-Sep-16 04:30N 34°39' E 033°02'2 4.1
2017-Sep-16 04:00N 34°38' E 033°04'510.5
2017-Sep-16 03:30N 34°33' E 033°04'46115.7
2017-Sep-14 22:05N 37°21' E 024°14'516.4
2017-Sep-14 21:46N 37°24' E 024°09'416.6
2017-Sep-14 21:30N 37°26' E 024°04'816.1
2017-Sep-14 21:00N 37°31' E 023°56'816.1
2017-Sep-14 20:30N 37°36' E 023°48'815.4
2017-Sep-14 20:01N 37°42' E 023°41'816.3
2017-Sep-14 19:30N 37°49' E 023°37'714.0
2017-Sep-14 19:00N 37°56' E 023°36'2 3.1
2017-Sep-14 18:30N 37°58' E 023°37'0 0.0
2017-Sep-14 18:00N 37°58' E 023°37'0 0.0
2017-Sep-14 17:24N 37°58' E 023°37'0 0.0
2017-Sep-14 17:00N 37°58' E 023°37'0 0.0
2017-Sep-14 16:30N 37°58' E 023°37'0 0.0
2017-Sep-14 16:00N 37°58' E 023°37'0 0.0
2017-Sep-14 15:27N 37°58' E 023°37'0 0.0
2017-Sep-14 15:00N 37°58' E 023°37'0 0.0
2017-Sep-14 14:30N 37°58' E 023°37'0 0.0
2017-Sep-14 14:00N 37°58' E 023°37'0 0.0
2017-Sep-14 13:30N 37°58' E 023°37'0 0.0
2017-Sep-14 13:00N 37°58' E 023°37'0 0.0
2017-Sep-14 12:30N 37°58' E 023°37'1 1.6
2017-Sep-14 12:01N 37°57' E 023°36'2 3.9
2017-Sep-14 11:31N 37°55' E 023°36'1 2.9
2017-Sep-14 11:01N 37°54' E 023°36'0 0.9
2017-Sep-14 10:31N 37°53' E 023°36'1 2.0
2017-Sep-14 10:01N 37°53' E 023°37'510.6
2017-Sep-14 09:30N 37°48' E 023°40'815.5
2017-Sep-14 09:00N 37°42' E 023°45'815.7
2017-Sep-14 08:30N 37°38' E 023°54'915.5
2017-Sep-14 07:56N 37°37' E 024°05'14515.8
2017-Sep-13 22:47N 39°40' E 025°44'716.1
2017-Sep-13 22:23N 39°46' E 025°48'616.0
2017-Sep-13 22:00N 39°51' E 025°51'916.3
2017-Sep-13 21:26N 39°59' E 025°57'1115.5
2017-Sep-13 20:44N 40°02' E 026°11'2 9.4
2017-Sep-13 20:30N 40°02' E 026°14'1112.9
2017-Sep-13 19:39N 40°10' E 026°23'1 8.7
2017-Sep-13 19:30N 40°12' E 026°23'2112.9
2017-Sep-13 17:50N 40°26' E 026°44'515.6
2017-Sep-13 17:30N 40°28' E 026°50'103 5.5
2017-Sep-12 22:46N 40°25' E 029°05'0 0.2
2017-Sep-12 22:30N 40°25' E 029°05'2 0.2
2017-Sep-12 15:09N 40°27' E 029°05'1 4.1
2017-Sep-12 14:58N 40°27' E 029°04'16 5.1
2017-Sep-12 11:53N 40°42' E 029°01'513.4
2017-Sep-12 11:29N 40°43' E 029°08'713.2
2017-Sep-12 10:59N 40°44' E 029°17'510.7
2017-Sep-12 10:29N 40°45' E 029°24'612.1
2017-Sep-12 10:00N 40°45' E 029°31'9 0.4
2017-Sep-11 13:25N 40°44' E 029°43'1213.2
2017-Sep-11 12:31N 40°44' E 029°27'114.4
2017-Sep-11 12:28N 40°44' E 029°26'510.9
2017-Sep-11 12:01N 40°44' E 029°20'611.5
2017-Sep-11 11:30N 40°44' E 029°12'1 1.5
2017-Sep-11 11:01N 40°44' E 029°11'0 0.7
2017-Sep-11 10:30N 40°44' E 029°10'1 1.1
2017-Sep-11 10:00N 40°44' E 029°10'510.5
2017-Sep-11 09:31N 40°43' E 029°03'814.0
2017-Sep-11 08:58N 40°43' E 028°53'510.8
2017-Sep-11 08:31N 40°45' E 028°47'0 0.1
2017-Sep-11 06:45N 40°45' E 028°47'0 0.3
2017-Sep-11 06:13N 40°45' E 028°47'0 0.3
2017-Sep-11 05:59N 40°45' E 028°47'0 0.3
2017-Sep-11 05:30N 40°45' E 028°47'0 0.3
2017-Sep-11 04:58N 40°44' E 028°47'0 0.3
2017-Sep-11 04:30N 40°44' E 028°47'0 0.4
2017-Sep-11 03:59N 40°44' E 028°47'1 0.4
2017-Sep-11 02:09N 40°43' E 028°47'0 0.4
2017-Sep-11 01:58N 40°43' E 028°47'0 0.9
2017-Sep-11 01:28N 40°43' E 028°46'1211.7
2017-Sep-11 00:27N 40°44' E 028°30'1014.2
2017-Sep-10 23:43N 40°43' E 028°17'313.9
2017-Sep-10 23:30N 40°43' E 028°13'714.1
2017-Sep-10 23:00N 40°43' E 028°03'  
Track history (hours):
 
Tides and Currents Weather Stations Pressure Air Temp Water Temp Dewpoint Dewpoint Depression Visibility Wind Speed Wind Dir Waves Ship Positions

Neptune Hellas

Last reported at 2017-Sep-20 21:55 UTC. Time now 2017-Sep-23 23:56 UTC.
Position N 35°12' E 029°33'.

Length 168 m; draft 7.6 m.

Type: Cargo ship. MMSI: 256575000.

Date/timePositionNaut miles runAvg speedWind from/ knotsBaromVisibWave heightAir tempDewpointWater temp
2017-Sep-20 21:55N 35°12' E 029°33'1116.7
2017-Sep-20 21:16N 35°10' E 029°46'516.7
2017-Sep-20 20:56N 35°08' E 029°52'716.9
2017-Sep-20 20:30N 35°06' E 030°01'816.9
2017-Sep-20 20:00N 35°03' E 030°11'817.0
2017-Sep-20 19:30N 34°60' E 030°20'816.7
2017-Sep-20 19:00N 34°57' E 030°30'916.7
2017-Sep-20 18:27N 34°51' E 030°39'1016.0
2017-Sep-20 17:51N 34°43' E 030°45'616.5
2017-Sep-20 17:30N 34°37' E 030°46'3116.3
2017-Sep-20 15:35N 34°07' E 030°53'216.0
2017-Sep-20 15:29N 34°05' E 030°54'231 4.5
2017-Sep-18 12:21N 31°51' E 034°38'39 4.5
2017-Sep-18 03:38N 31°54' E 033°52'316.2
2017-Sep-18 03:26N 31°54' E 033°49'716.3
2017-Sep-18 02:58N 31°54' E 033°40'916.0
2017-Sep-18 02:26N 31°55' E 033°30'716.3
2017-Sep-18 02:00N 31°55' E 033°21'1116.2
2017-Sep-18 01:18N 31°55' E 033°08'2016.3
2017-Sep-18 00:03N 31°56' E 032°44'2616.5
2017-Sep-17 22:28N 31°58' E 032°13'166 4.6
2017-Sep-16 10:05N 34°38' E 033°04'1 8.0
2017-Sep-16 09:57N 34°39' E 033°03'2 3.8
2017-Sep-16 09:30N 34°39' E 033°01'0 0.0
2017-Sep-16 09:00N 34°39' E 033°01'0 0.0
2017-Sep-16 08:30N 34°39' E 033°01'0 0.0
2017-Sep-16 07:54N 34°39' E 033°01'0 0.0
2017-Sep-16 07:30N 34°39' E 033°01'0 0.0
2017-Sep-16 07:00N 34°39' E 033°01'0 0.0
2017-Sep-16 06:24N 34°39' E 033°01'0 0.0
2017-Sep-16 06:00N 34°39' E 033°01'0 0.0
2017-Sep-16 05:24N 34°39' E 033°01'0 0.0
2017-Sep-16 05:00N 34°39' E 033°01'1 1.5
2017-Sep-16 04:30N 34°39' E 033°02'2 4.1
2017-Sep-16 04:00N 34°38' E 033°04'510.5
2017-Sep-16 03:30N 34°33' E 033°04'46115.7
2017-Sep-14 22:05N 37°21' E 024°14'516.4
2017-Sep-14 21:46N 37°24' E 024°09'416.6
2017-Sep-14 21:30N 37°26' E 024°04'816.1
2017-Sep-14 21:00N 37°31' E 023°56'816.1
2017-Sep-14 20:30N 37°36' E 023°48'815.4
2017-Sep-14 20:01N 37°42' E 023°41'816.3
2017-Sep-14 19:30N 37°49' E 023°37'714.0
2017-Sep-14 19:00N 37°56' E 023°36'2 3.1
2017-Sep-14 18:30N 37°58' E 023°37'0 0.0
2017-Sep-14 18:00N 37°58' E 023°37'0 0.0
2017-Sep-14 17:24N 37°58' E 023°37'0 0.0
2017-Sep-14 17:00N 37°58' E 023°37'0 0.0
2017-Sep-14 16:30N 37°58' E 023°37'0 0.0
2017-Sep-14 16:00N 37°58' E 023°37'0 0.0
2017-Sep-14 15:27N 37°58' E 023°37'0 0.0
2017-Sep-14 15:00N 37°58' E 023°37'0 0.0
2017-Sep-14 14:30N 37°58' E 023°37'0 0.0
2017-Sep-14 14:00N 37°58' E 023°37'0 0.0
2017-Sep-14 13:30N 37°58' E 023°37'0 0.0
2017-Sep-14 13:00N 37°58' E 023°37'0 0.0
2017-Sep-14 12:30N 37°58' E 023°37'1 1.6
2017-Sep-14 12:01N 37°57' E 023°36'2 3.9
2017-Sep-14 11:31N 37°55' E 023°36'1 2.9
2017-Sep-14 11:01N 37°54' E 023°36'0 0.9
2017-Sep-14 10:31N 37°53' E 023°36'1 2.0
2017-Sep-14 10:01N 37°53' E 023°37'510.6
2017-Sep-14 09:30N 37°48' E 023°40'815.5
2017-Sep-14 09:00N 37°42' E 023°45'815.7
2017-Sep-14 08:30N 37°38' E 023°54'915.5
2017-Sep-14 07:56N 37°37' E 024°05'14515.8
2017-Sep-13 22:47N 39°40' E 025°44'716.1
2017-Sep-13 22:23N 39°46' E 025°48'616.0
2017-Sep-13 22:00N 39°51' E 025°51'916.3
2017-Sep-13 21:26N 39°59' E 025°57'1115.5
2017-Sep-13 20:44N 40°02' E 026°11'2 9.4
2017-Sep-13 20:30N 40°02' E 026°14'1112.9
2017-Sep-13 19:39N 40°10' E 026°23'1 8.7
2017-Sep-13 19:30N 40°12' E 026°23'2112.9
2017-Sep-13 17:50N 40°26' E 026°44'515.6
2017-Sep-13 17:30N 40°28' E 026°50'103 5.5
2017-Sep-12 22:46N 40°25' E 029°05'0 0.2
2017-Sep-12 22:30N 40°25' E 029°05'2 0.2
2017-Sep-12 15:09N 40°27' E 029°05'1 4.1
2017-Sep-12 14:58N 40°27' E 029°04'16 5.1
2017-Sep-12 11:53N 40°42' E 029°01'513.4
2017-Sep-12 11:29N 40°43' E 029°08'713.2
2017-Sep-12 10:59N 40°44' E 029°17'510.7
2017-Sep-12 10:29N 40°45' E 029°24'612.1
2017-Sep-12 10:00N 40°45' E 029°31'9 0.4
2017-Sep-11 13:25N 40°44' E 029°43'1213.2
2017-Sep-11 12:31N 40°44' E 029°27'114.4
2017-Sep-11 12:28N 40°44' E 029°26'510.9
2017-Sep-11 12:01N 40°44' E 029°20'611.5
2017-Sep-11 11:30N 40°44' E 029°12'1 1.5
2017-Sep-11 11:01N 40°44' E 029°11'0 0.7
2017-Sep-11 10:30N 40°44' E 029°10'1 1.1
2017-Sep-11 10:00N 40°44' E 029°10'510.5
2017-Sep-11 09:31N 40°43' E 029°03'814.0
2017-Sep-11 08:58N 40°43' E 028°53'510.8
2017-Sep-11 08:31N 40°45' E 028°47'0 0.1
2017-Sep-11 06:45N 40°45' E 028°47'0 0.3
2017-Sep-11 06:13N 40°45' E 028°47'0 0.3
2017-Sep-11 05:59N 40°45' E 028°47'0 0.3
2017-Sep-11 05:30N 40°45' E 028°47'0 0.3
2017-Sep-11 04:58N 40°44' E 028°47'0 0.3
2017-Sep-11 04:30N 40°44' E 028°47'0 0.4
2017-Sep-11 03:59N 40°44' E 028°47'1 0.4
2017-Sep-11 02:09N 40°43' E 028°47'0 0.4
2017-Sep-11 01:58N 40°43' E 028°47'0 0.9
2017-Sep-11 01:28N 40°43' E 028°46'1211.7
2017-Sep-11 00:27N 40°44' E 028°30'1014.2
2017-Sep-10 23:43N 40°43' E 028°17'313.9
2017-Sep-10 23:30N 40°43' E 028°13'714.1
2017-Sep-10 23:00N 40°43' E 028°03'  

Dump ship's entire track history